Terminal Aerodrome Forecast
Issued by NWS Boston, MA

Current Version | Previous Version | Text Only | Print | Product List | Glossary On
Versions: 1 2 3 4 5 6 7 8 9 10 11 12 13 14 15 16 17 18 19 20 21 22 23 24 25 26 27 28 29 30
000 FTUS41 KBOX 271120 TAFORH TAF KORH 271120Z 2712/2812 32009KT P6SM BKN070 FM271700 32012G19KT P6SM OVC045 FM280600 34013KT P6SM OVC050=

USA.gov is the U.S. government's official web portal to all federal, state and local government web resources and services.